sensor_id;sensor_type;location;lat;lon;timestamp;P1;durP1;ratioP1;P2;durP2;ratioP2
20101;SDS011;10210;52.284;9.892;2023-11-18T00:00:22;23.87;;;13.70;;
20101;SDS011;10210;52.284;9.892;2023-11-18T00:02:48;22.97;;;12.93;;
20101;SDS011;10210;52.284;9.892;2023-11-18T00:05:15;23.20;;;13.87;;
20101;SDS011;10210;52.284;9.892;2023-11-18T00:07:41;23.90;;;14.40;;
20101;SDS011;10210;52.284;9.892;2023-11-18T00:10:07;22.30;;;13.63;;
20101;SDS011;10210;52.284;9.892;2023-11-18T00:12:34;23.83;;;14.37;;
20101;SDS011;10210;52.284;9.892;2023-11-18T00:15:01;26.87;;;14.53;;
20101;SDS011;10210;52.284;9.892;2023-11-18T00:17:33;25.13;;;14.73;;
20101;SDS011;10210;52.284;9.892;2023-11-18T00:19:59;24.57;;;14.83;;
20101;SDS011;10210;52.284;9.892;2023-11-18T00:22:28;24.30;;;15.00;;
20101;SDS011;10210;52.284;9.892;2023-11-18T00:24:53;27.27;;;15.27;;
20101;SDS011;10210;52.284;9.892;2023-11-18T00:27:20;28.40;;;17.00;;
20101;SDS011;10210;52.284;9.892;2023-11-18T00:29:47;27.60;;;16.03;;
20101;SDS011;10210;52.284;9.892;2023-11-18T00:32:13;28.67;;;16.77;;
20101;SDS011;10210;52.284;9.892;2023-11-18T00:34:39;26.50;;;15.03;;
20101;SDS011;10210;52.284;9.892;2023-11-18T00:37:05;29.43;;;16.67;;
20101;SDS011;10210;52.284;9.892;2023-11-18T00:39:30;29.40;;;15.80;;
20101;SDS011;10210;52.284;9.892;2023-11-18T00:41:56;28.47;;;15.50;;
20101;SDS011;10210;52.284;9.892;2023-11-18T00:44:22;25.20;;;14.57;;
20101;SDS011;10210;52.284;9.892;2023-11-18T00:46:47;23.53;;;12.73;;
20101;SDS011;10210;52.284;9.892;2023-11-18T00:49:13;22.63;;;12.20;;
20101;SDS011;10210;52.284;9.892;2023-11-18T00:51:39;25.03;;;13.90;;
20101;SDS011;10210;52.284;9.892;2023-11-18T00:54:06;25.83;;;14.10;;
20101;SDS011;10210;52.284;9.892;2023-11-18T00:56:32;24.93;;;13.77;;
20101;SDS011;10210;52.284;9.892;2023-11-18T00:58:58;25.97;;;14.43;;
20101;SDS011;10210;52.284;9.892;2023-11-18T01:01:26;25.27;;;13.70;;
20101;SDS011;10210;52.284;9.892;2023-11-18T01:03:52;23.03;;;12.83;;
20101;SDS011;10210;52.284;9.892;2023-11-18T01:06:20;23.13;;;13.37;;
20101;SDS011;10210;52.284;9.892;2023-11-18T01:08:46;23.23;;;13.13;;
20101;SDS011;10210;52.284;9.892;2023-11-18T01:11:16;24.70;;;13.57;;
20101;SDS011;10210;52.284;9.892;2023-11-18T01:13:47;22.50;;;12.83;;
20101;SDS011;10210;52.284;9.892;2023-11-18T01:16:14;21.27;;;12.17;;
20101;SDS011;10210;52.284;9.892;2023-11-18T01:18:40;21.03;;;11.70;;
20101;SDS011;10210;52.284;9.892;2023-11-18T01:21:07;22.73;;;12.70;;
20101;SDS011;10210;52.284;9.892;2023-11-18T01:23:36;25.73;;;14.03;;
20101;SDS011;10210;52.284;9.892;2023-11-18T01:26:03;22.10;;;12.30;;
20101;SDS011;10210;52.284;9.892;2023-11-18T01:28:31;21.73;;;13.30;;
20101;SDS011;10210;52.284;9.892;2023-11-18T01:31:01;24.23;;;12.37;;
20101;SDS011;10210;52.284;9.892;2023-11-18T01:33:29;23.47;;;13.53;;
20101;SDS011;10210;52.284;9.892;2023-11-18T01:35:55;24.70;;;15.03;;
20101;SDS011;10210;52.284;9.892;2023-11-18T01:38:21;26.03;;;14.73;;
20101;SDS011;10210;52.284;9.892;2023-11-18T01:40:46;24.40;;;15.00;;
20101;SDS011;10210;52.284;9.892;2023-11-18T01:43:12;25.60;;;14.93;;
20101;SDS011;10210;52.284;9.892;2023-11-18T01:45:40;24.10;;;15.13;;
20101;SDS011;10210;52.284;9.892;2023-11-18T01:48:06;26.27;;;15.83;;
20101;SDS011;10210;52.284;9.892;2023-11-18T01:50:35;27.43;;;13.67;;
20101;SDS011;10210;52.284;9.892;2023-11-18T01:53:03;23.70;;;14.40;;
20101;SDS011;10210;52.284;9.892;2023-11-18T01:55:30;26.63;;;14.63;;
20101;SDS011;10210;52.284;9.892;2023-11-18T01:58:00;24.13;;;13.67;;
20101;SDS011;10210;52.284;9.892;2023-11-18T02:00:36;23.10;;;13.13;;
20101;SDS011;10210;52.284;9.892;2023-11-18T02:03:06;20.70;;;12.13;;
20101;SDS011;10210;52.284;9.892;2023-11-18T02:05:32;23.50;;;12.33;;
20101;SDS011;10210;52.284;9.892;2023-11-18T02:08:01;20.63;;;11.27;;
20101;SDS011;10210;52.284;9.892;2023-11-18T02:10:35;21.57;;;12.00;;
20101;SDS011;10210;52.284;9.892;2023-11-18T02:13:13;19.93;;;11.17;;
20101;SDS011;10210;52.284;9.892;2023-11-18T02:15:50;19.77;;;10.60;;
20101;SDS011;10210;52.284;9.892;2023-11-18T02:18:20;19.00;;;10.67;;
20101;SDS011;10210;52.284;9.892;2023-11-18T02:20:49;18.30;;;10.23;;
20101;SDS011;10210;52.284;9.892;2023-11-18T02:23:17;18.97;;;10.90;;
20101;SDS011;10210;52.284;9.892;2023-11-18T02:25:46;20.07;;;11.60;;
20101;SDS011;10210;52.284;9.892;2023-11-18T02:28:12;19.73;;;10.83;;
20101;SDS011;10210;52.284;9.892;2023-11-18T02:30:38;20.40;;;11.87;;
20101;SDS011;10210;52.284;9.892;2023-11-18T02:35:54;21.90;;;12.10;;
20101;SDS011;10210;52.284;9.892;2023-11-18T02:38:31;21.27;;;11.20;;
20101;SDS011;10210;52.284;9.892;2023-11-18T02:41:06;22.27;;;12.43;;
20101;SDS011;10210;52.284;9.892;2023-11-18T02:43:37;21.93;;;12.57;;
20101;SDS011;10210;52.284;9.892;2023-11-18T02:46:06;21.27;;;12.27;;
20101;SDS011;10210;52.284;9.892;2023-11-18T02:48:34;26.13;;;13.60;;
20101;SDS011;10210;52.284;9.892;2023-11-18T02:51:02;23.57;;;12.97;;
20101;SDS011;10210;52.284;9.892;2023-11-18T02:53:29;23.80;;;14.07;;
20101;SDS011;10210;52.284;9.892;2023-11-18T02:55:54;21.60;;;12.73;;
20101;SDS011;10210;52.284;9.892;2023-11-18T02:58:27;21.30;;;12.10;;
20101;SDS011;10210;52.284;9.892;2023-11-18T03:00:54;22.07;;;13.00;;
20101;SDS011;10210;52.284;9.892;2023-11-18T03:03:20;22.27;;;12.67;;
20101;SDS011;10210;52.284;9.892;2023-11-18T03:05:46;20.87;;;12.47;;
20101;SDS011;10210;52.284;9.892;2023-11-18T03:08:14;19.20;;;10.83;;
20101;SDS011;10210;52.284;9.892;2023-11-18T03:10:40;22.10;;;13.23;;
20101;SDS011;10210;52.284;9.892;2023-11-18T03:13:09;20.93;;;12.13;;
20101;SDS011;10210;52.284;9.892;2023-11-18T03:15:37;22.33;;;13.10;;
20101;SDS011;10210;52.284;9.892;2023-11-18T03:18:03;26.20;;;14.57;;
20101;SDS011;10210;52.284;9.892;2023-11-18T03:20:30;22.07;;;12.37;;
20101;SDS011;10210;52.284;9.892;2023-11-18T03:22:59;21.43;;;12.67;;
20101;SDS011;10210;52.284;9.892;2023-11-18T03:25:28;20.37;;;12.03;;
20101;SDS011;10210;52.284;9.892;2023-11-18T03:27:54;20.57;;;12.13;;
20101;SDS011;10210;52.284;9.892;2023-11-18T03:30:19;18.93;;;11.33;;
20101;SDS011;10210;52.284;9.892;2023-11-18T03:32:46;21.00;;;12.43;;
20101;SDS011;10210;52.284;9.892;2023-11-18T03:35:11;21.10;;;12.00;;
20101;SDS011;10210;52.284;9.892;2023-11-18T03:37:38;21.07;;;12.33;;
20101;SDS011;10210;52.284;9.892;2023-11-18T03:40:08;21.20;;;12.47;;
20101;SDS011;10210;52.284;9.892;2023-11-18T03:42:38;21.10;;;12.43;;
20101;SDS011;10210;52.284;9.892;2023-11-18T03:45:05;22.73;;;14.10;;
20101;SDS011;10210;52.284;9.892;2023-11-18T03:47:31;23.50;;;13.33;;
20101;SDS011;10210;52.284;9.892;2023-11-18T03:49:59;23.17;;;13.63;;
20101;SDS011;10210;52.284;9.892;2023-11-18T03:52:26;21.80;;;12.93;;
20101;SDS011;10210;52.284;9.892;2023-11-18T03:54:52;22.90;;;13.93;;
20101;SDS011;10210;52.284;9.892;2023-11-18T03:57:20;25.33;;;14.77;;
20101;SDS011;10210;52.284;9.892;2023-11-18T03:59:46;28.33;;;16.40;;
20101;SDS011;10210;52.284;9.892;2023-11-18T04:02:12;30.37;;;17.57;;
20101;SDS011;10210;52.284;9.892;2023-11-18T04:04:38;29.93;;;18.20;;
20101;SDS011;10210;52.284;9.892;2023-11-18T04:07:04;31.23;;;18.57;;
20101;SDS011;10210;52.284;9.892;2023-11-18T04:09:31;31.50;;;18.57;;
20101;SDS011;10210;52.284;9.892;2023-11-18T04:11:57;26.57;;;15.47;;
20101;SDS011;10210;52.284;9.892;2023-11-18T04:14:23;28.03;;;15.73;;
20101;SDS011;10210;52.284;9.892;2023-11-18T04:16:50;27.43;;;16.20;;
20101;SDS011;10210;52.284;9.892;2023-11-18T04:19:16;26.70;;;15.93;;
20101;SDS011;10210;52.284;9.892;2023-11-18T04:21:43;30.57;;;16.90;;
20101;SDS011;10210;52.284;9.892;2023-11-18T04:24:13;30.50;;;17.40;;
20101;SDS011;10210;52.284;9.892;2023-11-18T04:26:39;28.07;;;15.93;;
20101;SDS011;10210;52.284;9.892;2023-11-18T04:29:06;26.90;;;16.73;;
20101;SDS011;10210;52.284;9.892;2023-11-18T04:31:32;30.23;;;17.67;;
20101;SDS011;10210;52.284;9.892;2023-11-18T04:33:59;28.30;;;18.00;;
20101;SDS011;10210;52.284;9.892;2023-11-18T04:36:25;31.20;;;18.67;;
20101;SDS011;10210;52.284;9.892;2023-11-18T04:38:51;34.43;;;19.13;;
20101;SDS011;10210;52.284;9.892;2023-11-18T04:41:17;31.70;;;19.63;;
20101;SDS011;10210;52.284;9.892;2023-11-18T04:43:43;31.83;;;19.10;;
20101;SDS011;10210;52.284;9.892;2023-11-18T04:46:09;31.23;;;18.20;;
20101;SDS011;10210;52.284;9.892;2023-11-18T04:48:35;28.27;;;17.17;;
20101;SDS011;10210;52.284;9.892;2023-11-18T04:51:01;27.63;;;16.33;;
20101;SDS011;10210;52.284;9.892;2023-11-18T04:53:27;30.53;;;18.23;;
20101;SDS011;10210;52.284;9.892;2023-11-18T04:55:53;29.23;;;17.37;;
20101;SDS011;10210;52.284;9.892;2023-11-18T04:58:18;26.13;;;16.37;;
20101;SDS011;10210;52.284;9.892;2023-11-18T05:00:44;26.97;;;16.53;;
20101;SDS011;10210;52.284;9.892;2023-11-18T05:03:10;27.03;;;16.50;;
20101;SDS011;10210;52.284;9.892;2023-11-18T05:05:36;27.80;;;17.10;;
20101;SDS011;10210;52.284;9.892;2023-11-18T05:08:05;28.70;;;17.57;;
20101;SDS011;10210;52.284;9.892;2023-11-18T05:10:33;25.57;;;16.27;;
20101;SDS011;10210;52.284;9.892;2023-11-18T05:13:00;27.33;;;16.50;;
20101;SDS011;10210;52.284;9.892;2023-11-18T05:15:26;28.17;;;17.63;;
20101;SDS011;10210;52.284;9.892;2023-11-18T05:17:52;27.43;;;15.70;;
20101;SDS011;10210;52.284;9.892;2023-11-18T05:20:19;29.43;;;17.67;;
20101;SDS011;10210;52.284;9.892;2023-11-18T05:22:46;32.87;;;18.60;;
20101;SDS011;10210;52.284;9.892;2023-11-18T05:25:13;31.23;;;17.63;;
20101;SDS011;10210;52.284;9.892;2023-11-18T05:27:39;29.47;;;16.63;;
20101;SDS011;10210;52.284;9.892;2023-11-18T05:30:06;29.77;;;16.97;;
20101;SDS011;10210;52.284;9.892;2023-11-18T05:32:35;33.80;;;20.23;;
20101;SDS011;10210;52.284;9.892;2023-11-18T05:35:03;33.83;;;20.13;;
20101;SDS011;10210;52.284;9.892;2023-11-18T05:37:30;30.60;;;18.43;;
20101;SDS011;10210;52.284;9.892;2023-11-18T05:40:00;34.57;;;19.70;;
20101;SDS011;10210;52.284;9.892;2023-11-18T05:42:32;32.10;;;18.63;;
20101;SDS011;10210;52.284;9.892;2023-11-18T05:45:01;32.33;;;18.57;;
20101;SDS011;10210;52.284;9.892;2023-11-18T05:47:29;33.40;;;19.77;;
20101;SDS011;10210;52.284;9.892;2023-11-18T05:49:55;38.27;;;21.83;;
20101;SDS011;10210;52.284;9.892;2023-11-18T05:52:21;37.03;;;21.20;;
20101;SDS011;10210;52.284;9.892;2023-11-18T05:54:48;35.60;;;20.73;;
20101;SDS011;10210;52.284;9.892;2023-11-18T05:57:17;31.23;;;17.97;;
20101;SDS011;10210;52.284;9.892;2023-11-18T05:59:43;35.20;;;19.17;;
20101;SDS011;10210;52.284;9.892;2023-11-18T06:02:13;33.37;;;18.30;;
20101;SDS011;10210;52.284;9.892;2023-11-18T06:04:43;32.57;;;16.67;;
20101;SDS011;10210;52.284;9.892;2023-11-18T06:07:10;35.23;;;20.17;;
20101;SDS011;10210;52.284;9.892;2023-11-18T06:09:38;36.27;;;18.57;;
20101;SDS011;10210;52.284;9.892;2023-11-18T06:12:08;32.73;;;17.20;;
20101;SDS011;10210;52.284;9.892;2023-11-18T06:14:35;36.97;;;19.80;;
20101;SDS011;10210;52.284;9.892;2023-11-18T06:17:02;36.23;;;19.27;;
20101;SDS011;10210;52.284;9.892;2023-11-18T06:19:28;37.10;;;19.20;;
20101;SDS011;10210;52.284;9.892;2023-11-18T06:21:54;36.00;;;19.57;;
20101;SDS011;10210;52.284;9.892;2023-11-18T06:24:19;35.07;;;18.53;;
20101;SDS011;10210;52.284;9.892;2023-11-18T06:26:46;32.20;;;17.17;;
20101;SDS011;10210;52.284;9.892;2023-11-18T06:29:14;34.50;;;18.33;;
20101;SDS011;10210;52.284;9.892;2023-11-18T06:31:40;33.93;;;17.53;;
20101;SDS011;10210;52.284;9.892;2023-11-18T06:34:07;30.90;;;16.23;;
20101;SDS011;10210;52.284;9.892;2023-11-18T06:36:33;31.93;;;17.07;;
20101;SDS011;10210;52.284;9.892;2023-11-18T06:38:59;32.97;;;16.70;;
20101;SDS011;10210;52.284;9.892;2023-11-18T06:41:25;32.87;;;16.73;;
20101;SDS011;10210;52.284;9.892;2023-11-18T06:43:58;28.73;;;14.40;;
20101;SDS011;10210;52.284;9.892;2023-11-18T06:46:31;33.90;;;16.33;;
20101;SDS011;10210;52.284;9.892;2023-11-18T06:48:58;31.13;;;15.63;;
20101;SDS011;10210;52.284;9.892;2023-11-18T06:51:31;30.33;;;15.27;;
20101;SDS011;10210;52.284;9.892;2023-11-18T06:54:00;27.97;;;14.00;;
20101;SDS011;10210;52.284;9.892;2023-11-18T06:56:39;27.73;;;14.43;;
20101;SDS011;10210;52.284;9.892;2023-11-18T06:59:09;30.63;;;14.73;;
20101;SDS011;10210;52.284;9.892;2023-11-18T07:01:37;28.47;;;14.40;;
20101;SDS011;10210;52.284;9.892;2023-11-18T07:04:10;27.20;;;13.60;;
20101;SDS011;10210;52.284;9.892;2023-11-18T07:06:37;28.13;;;13.47;;
20101;SDS011;10210;52.284;9.892;2023-11-18T07:09:03;28.03;;;14.33;;
20101;SDS011;10210;52.284;9.892;2023-11-18T07:11:38;30.03;;;14.77;;
20101;SDS011;10210;52.284;9.892;2023-11-18T07:14:10;31.93;;;16.10;;
20101;SDS011;10210;52.284;9.892;2023-11-18T07:16:37;28.67;;;15.23;;
20101;SDS011;10210;52.284;9.892;2023-11-18T07:19:04;33.83;;;17.13;;
20101;SDS011;10210;52.284;9.892;2023-11-18T07:21:30;34.17;;;17.23;;
20101;SDS011;10210;52.284;9.892;2023-11-18T07:23:56;36.17;;;17.10;;
20101;SDS011;10210;52.284;9.892;2023-11-18T07:26:22;35.40;;;17.30;;
20101;SDS011;10210;52.284;9.892;2023-11-18T07:28:49;35.90;;;17.27;;
20101;SDS011;10210;52.284;9.892;2023-11-18T07:31:15;35.43;;;17.00;;
20101;SDS011;10210;52.284;9.892;2023-11-18T07:33:43;32.07;;;16.70;;
20101;SDS011;10210;52.284;9.892;2023-11-18T07:36:14;34.23;;;17.43;;
20101;SDS011;10210;52.284;9.892;2023-11-18T07:38:41;36.67;;;18.63;;
20101;SDS011;10210;52.284;9.892;2023-11-18T07:41:07;39.10;;;18.60;;
20101;SDS011;10210;52.284;9.892;2023-11-18T07:43:33;36.83;;;18.50;;
20101;SDS011;10210;52.284;9.892;2023-11-18T07:46:05;39.47;;;20.17;;
20101;SDS011;10210;52.284;9.892;2023-11-18T07:48:32;36.30;;;19.47;;
20101;SDS011;10210;52.284;9.892;2023-11-18T07:50:58;38.07;;;19.57;;
20101;SDS011;10210;52.284;9.892;2023-11-18T07:53:25;43.53;;;21.93;;
20101;SDS011;10210;52.284;9.892;2023-11-18T07:55:54;38.60;;;20.53;;
20101;SDS011;10210;52.284;9.892;2023-11-18T07:58:20;43.80;;;22.20;;
20101;SDS011;10210;52.284;9.892;2023-11-18T08:00:48;37.63;;;20.53;;
20101;SDS011;10210;52.284;9.892;2023-11-18T08:03:15;39.47;;;20.40;;
20101;SDS011;10210;52.284;9.892;2023-11-18T08:05:41;43.07;;;22.30;;
20101;SDS011;10210;52.284;9.892;2023-11-18T08:08:09;38.40;;;20.73;;
20101;SDS011;10210;52.284;9.892;2023-11-18T08:10:36;37.17;;;18.70;;
20101;SDS011;10210;52.284;9.892;2023-11-18T08:13:04;41.03;;;19.97;;
20101;SDS011;10210;52.284;9.892;2023-11-18T08:15:34;37.30;;;18.83;;
20101;SDS011;10210;52.284;9.892;2023-11-18T08:18:04;38.10;;;21.10;;
20101;SDS011;10210;52.284;9.892;2023-11-18T08:20:31;42.63;;;21.07;;
20101;SDS011;10210;52.284;9.892;2023-11-18T08:22:57;41.50;;;22.80;;
20101;SDS011;10210;52.284;9.892;2023-11-18T08:25:23;45.07;;;22.53;;
20101;SDS011;10210;52.284;9.892;2023-11-18T08:27:49;46.47;;;23.17;;
20101;SDS011;10210;52.284;9.892;2023-11-18T08:30:15;46.47;;;22.97;;
20101;SDS011;10210;52.284;9.892;2023-11-18T08:32:43;45.67;;;22.90;;
20101;SDS011;10210;52.284;9.892;2023-11-18T08:35:10;43.93;;;21.40;;
20101;SDS011;10210;52.284;9.892;2023-11-18T08:37:41;39.60;;;20.23;;
20101;SDS011;10210;52.284;9.892;2023-11-18T08:40:08;38.87;;;19.33;;
20101;SDS011;10210;52.284;9.892;2023-11-18T08:42:44;38.33;;;19.63;;
20101;SDS011;10210;52.284;9.892;2023-11-18T08:45:21;35.23;;;18.63;;
20101;SDS011;10210;52.284;9.892;2023-11-18T08:47:54;38.13;;;21.20;;
20101;SDS011;10210;52.284;9.892;2023-11-18T08:50:22;44.53;;;23.13;;
20101;SDS011;10210;52.284;9.892;2023-11-18T08:52:49;41.37;;;21.17;;
20101;SDS011;10210;52.284;9.892;2023-11-18T08:55:22;39.17;;;19.60;;
20101;SDS011;10210;52.284;9.892;2023-11-18T08:58:15;37.10;;;19.80;;
20101;SDS011;10210;52.284;9.892;2023-11-18T09:00:44;39.10;;;20.83;;
20101;SDS011;10210;52.284;9.892;2023-11-18T09:03:16;45.43;;;22.77;;
20101;SDS011;10210;52.284;9.892;2023-11-18T09:05:50;38.97;;;20.23;;
20101;SDS011;10210;52.284;9.892;2023-11-18T09:08:26;41.53;;;20.13;;
20101;SDS011;10210;52.284;9.892;2023-11-18T09:10:54;45.27;;;22.37;;
20101;SDS011;10210;52.284;9.892;2023-11-18T09:13:22;42.67;;;22.30;;
20101;SDS011;10210;52.284;9.892;2023-11-18T09:15:56;39.93;;;21.83;;
20101;SDS011;10210;52.284;9.892;2023-11-18T09:18:25;41.67;;;20.90;;
20101;SDS011;10210;52.284;9.892;2023-11-18T09:20:52;40.47;;;20.30;;
20101;SDS011;10210;52.284;9.892;2023-11-18T09:23:25;40.17;;;20.70;;
20101;SDS011;10210;52.284;9.892;2023-11-18T09:25:53;41.67;;;20.40;;
20101;SDS011;10210;52.284;9.892;2023-11-18T09:28:22;38.87;;;19.07;;
20101;SDS011;10210;52.284;9.892;2023-11-18T09:30:50;38.13;;;18.73;;
20101;SDS011;10210;52.284;9.892;2023-11-18T09:33:21;35.90;;;17.60;;
20101;SDS011;10210;52.284;9.892;2023-11-18T09:36:00;39.27;;;18.37;;
20101;SDS011;10210;52.284;9.892;2023-11-18T09:38:32;37.33;;;18.57;;
20101;SDS011;10210;52.284;9.892;2023-11-18T09:41:05;41.10;;;18.90;;
20101;SDS011;10210;52.284;9.892;2023-11-18T09:43:36;38.40;;;18.33;;
20101;SDS011;10210;52.284;9.892;2023-11-18T09:48:48;31.70;;;15.93;;
20101;SDS011;10210;52.284;9.892;2023-11-18T09:51:40;34.77;;;16.90;;
20101;SDS011;10210;52.284;9.892;2023-11-18T09:57:33;32.30;;;15.67;;
20101;SDS011;10210;52.284;9.892;2023-11-18T10:00:08;31.13;;;15.13;;
20101;SDS011;10210;52.284;9.892;2023-11-18T10:02:51;35.87;;;15.43;;
20101;SDS011;10210;52.284;9.892;2023-11-18T10:05:20;31.27;;;15.63;;
20101;SDS011;10210;52.284;9.892;2023-11-18T10:07:47;34.93;;;14.90;;
20101;SDS011;10210;52.284;9.892;2023-11-18T10:10:15;34.67;;;16.63;;
20101;SDS011;10210;52.284;9.892;2023-11-18T10:12:44;33.40;;;16.00;;
20101;SDS011;10210;52.284;9.892;2023-11-18T10:15:18;28.60;;;14.90;;
20101;SDS011;10210;52.284;9.892;2023-11-18T10:17:48;31.97;;;16.00;;
20101;SDS011;10210;52.284;9.892;2023-11-18T10:20:58;33.70;;;15.40;;
20101;SDS011;10210;52.284;9.892;2023-11-18T10:23:17;26.73;;;13.20;;
20101;SDS011;10210;52.284;9.892;2023-11-18T10:25:49;26.00;;;13.17;;
20101;SDS011;10210;52.284;9.892;2023-11-18T10:28:24;26.03;;;13.40;;
20101;SDS011;10210;52.284;9.892;2023-11-18T10:31:02;26.90;;;11.93;;
20101;SDS011;10210;52.284;9.892;2023-11-18T10:33:35;23.93;;;11.37;;
20101;SDS011;10210;52.284;9.892;2023-11-18T10:36:03;25.60;;;11.67;;
20101;SDS011;10210;52.284;9.892;2023-11-18T10:38:37;22.97;;;10.70;;
20101;SDS011;10210;52.284;9.892;2023-11-18T10:41:14;22.73;;;9.80;;
20101;SDS011;10210;52.284;9.892;2023-11-18T10:43:44;19.47;;;9.40;;
20101;SDS011;10210;52.284;9.892;2023-11-18T10:46:14;19.93;;;8.73;;
20101;SDS011;10210;52.284;9.892;2023-11-18T10:48:42;19.93;;;8.90;;
20101;SDS011;10210;52.284;9.892;2023-11-18T10:51:16;20.63;;;8.60;;
20101;SDS011;10210;52.284;9.892;2023-11-18T10:53:49;18.50;;;7.57;;
20101;SDS011;10210;52.284;9.892;2023-11-18T10:56:29;19.63;;;7.93;;
20101;SDS011;10210;52.284;9.892;2023-11-18T10:58:55;18.10;;;8.17;;
20101;SDS011;10210;52.284;9.892;2023-11-18T11:01:29;17.73;;;7.63;;
20101;SDS011;10210;52.284;9.892;2023-11-18T11:03:57;19.10;;;8.40;;
20101;SDS011;10210;52.284;9.892;2023-11-18T11:06:26;18.57;;;7.67;;
20101;SDS011;10210;52.284;9.892;2023-11-18T11:08:55;20.47;;;8.17;;
20101;SDS011;10210;52.284;9.892;2023-11-18T11:11:27;18.93;;;8.83;;
20101;SDS011;10210;52.284;9.892;2023-11-18T11:14:05;19.00;;;7.87;;
20101;SDS011;10210;52.284;9.892;2023-11-18T11:16:38;18.03;;;7.77;;
20101;SDS011;10210;52.284;9.892;2023-11-18T11:19:20;25.43;;;7.83;;
20101;SDS011;10210;52.284;9.892;2023-11-18T11:21:59;16.70;;;7.20;;
20101;SDS011;10210;52.284;9.892;2023-11-18T11:24:49;18.23;;;7.17;;
20101;SDS011;10210;52.284;9.892;2023-11-18T11:30:45;16.50;;;6.60;;
20101;SDS011;10210;52.284;9.892;2023-11-18T11:36:17;16.27;;;6.60;;
20101;SDS011;10210;52.284;9.892;2023-11-18T11:38:52;17.73;;;6.97;;
20101;SDS011;10210;52.284;9.892;2023-11-18T11:41:21;15.63;;;6.67;;
20101;SDS011;10210;52.284;9.892;2023-11-18T11:43:51;15.13;;;6.23;;
20101;SDS011;10210;52.284;9.892;2023-11-18T11:46:22;15.63;;;7.23;;
20101;SDS011;10210;52.284;9.892;2023-11-18T11:48:58;17.17;;;7.17;;
20101;SDS011;10210;52.284;9.892;2023-11-18T11:51:40;18.33;;;7.40;;
20101;SDS011;10210;52.284;9.892;2023-11-18T11:54:21;18.97;;;7.20;;
20101;SDS011;10210;52.284;9.892;2023-11-18T11:56:55;16.40;;;6.50;;
20101;SDS011;10210;52.284;9.892;2023-11-18T12:02:13;17.30;;;6.37;;
20101;SDS011;10210;52.284;9.892;2023-11-18T12:04:59;14.57;;;6.50;;
20101;SDS011;10210;52.284;9.892;2023-11-18T12:07:31;16.63;;;7.40;;
20101;SDS011;10210;52.284;9.892;2023-11-18T12:10:07;16.17;;;7.37;;
20101;SDS011;10210;52.284;9.892;2023-11-18T12:12:38;17.03;;;7.07;;
20101;SDS011;10210;52.284;9.892;2023-11-18T12:15:06;16.40;;;7.57;;
20101;SDS011;10210;52.284;9.892;2023-11-18T12:20:43;16.07;;;7.43;;
20101;SDS011;10210;52.284;9.892;2023-11-18T12:23:12;15.70;;;6.63;;
20101;SDS011;10210;52.284;9.892;2023-11-18T12:25:46;15.83;;;7.03;;
20101;SDS011;10210;52.284;9.892;2023-11-18T12:28:19;13.77;;;6.60;;
20101;SDS011;10210;52.284;9.892;2023-11-18T12:30:55;15.27;;;6.97;;
20101;SDS011;10210;52.284;9.892;2023-11-18T12:33:23;15.77;;;7.03;;
20101;SDS011;10210;52.284;9.892;2023-11-18T12:41:40;16.47;;;7.97;;
20101;SDS011;10210;52.284;9.892;2023-11-18T12:46:50;16.57;;;8.00;;
20101;SDS011;10210;52.284;9.892;2023-11-18T12:49:39;16.77;;;7.97;;
20101;SDS011;10210;52.284;9.892;2023-11-18T12:52:08;18.50;;;8.53;;
20101;SDS011;10210;52.284;9.892;2023-11-18T12:54:39;16.50;;;7.17;;
20101;SDS011;10210;52.284;9.892;2023-11-18T12:57:08;15.13;;;6.83;;
20101;SDS011;10210;52.284;9.892;2023-11-18T12:59:39;16.20;;;7.10;;
20101;SDS011;10210;52.284;9.892;2023-11-18T13:02:12;16.47;;;7.30;;
20101;SDS011;10210;52.284;9.892;2023-11-18T13:04:43;14.80;;;6.73;;
20101;SDS011;10210;52.284;9.892;2023-11-18T13:07:12;15.00;;;7.20;;
20101;SDS011;10210;52.284;9.892;2023-11-18T13:09:39;16.60;;;7.63;;
20101;SDS011;10210;52.284;9.892;2023-11-18T13:12:07;15.47;;;6.80;;
20101;SDS011;10210;52.284;9.892;2023-11-18T13:14:34;15.37;;;6.37;;
20101;SDS011;10210;52.284;9.892;2023-11-18T13:17:02;14.97;;;6.13;;
20101;SDS011;10210;52.284;9.892;2023-11-18T13:19:33;14.37;;;6.23;;
20101;SDS011;10210;52.284;9.892;2023-11-18T13:22:02;15.90;;;6.83;;
20101;SDS011;10210;52.284;9.892;2023-11-18T13:24:34;15.27;;;6.63;;
20101;SDS011;10210;52.284;9.892;2023-11-18T13:27:19;14.20;;;6.67;;
20101;SDS011;10210;52.284;9.892;2023-11-18T13:29:49;14.90;;;6.77;;
20101;SDS011;10210;52.284;9.892;2023-11-18T13:32:15;15.50;;;7.23;;
20101;SDS011;10210;52.284;9.892;2023-11-18T13:34:42;16.37;;;6.80;;
20101;SDS011;10210;52.284;9.892;2023-11-18T13:37:08;13.80;;;6.13;;
20101;SDS011;10210;52.284;9.892;2023-11-18T13:39:37;16.37;;;7.07;;
20101;SDS011;10210;52.284;9.892;2023-11-18T13:42:19;14.30;;;6.40;;
20101;SDS011;10210;52.284;9.892;2023-11-18T13:44:53;15.70;;;5.87;;
20101;SDS011;10210;52.284;9.892;2023-11-18T13:47:26;14.77;;;6.80;;
20101;SDS011;10210;52.284;9.892;2023-11-18T13:49:56;14.17;;;6.37;;
20101;SDS011;10210;52.284;9.892;2023-11-18T13:52:25;13.97;;;6.33;;
20101;SDS011;10210;52.284;9.892;2023-11-18T13:54:51;14.50;;;6.27;;
20101;SDS011;10210;52.284;9.892;2023-11-18T13:57:22;16.07;;;6.73;;
20101;SDS011;10210;52.284;9.892;2023-11-18T13:59:49;15.13;;;6.93;;
20101;SDS011;10210;52.284;9.892;2023-11-18T14:02:15;16.93;;;6.73;;
20101;SDS011;10210;52.284;9.892;2023-11-18T14:04:41;14.13;;;6.33;;
20101;SDS011;10210;52.284;9.892;2023-11-18T14:07:14;14.13;;;5.50;;
20101;SDS011;10210;52.284;9.892;2023-11-18T14:09:42;14.83;;;6.33;;
20101;SDS011;10210;52.284;9.892;2023-11-18T14:12:11;16.43;;;6.80;;
20101;SDS011;10210;52.284;9.892;2023-11-18T14:14:38;15.33;;;6.97;;
20101;SDS011;10210;52.284;9.892;2023-11-18T14:17:05;14.30;;;6.83;;
20101;SDS011;10210;52.284;9.892;2023-11-18T14:19:32;15.50;;;6.90;;
20101;SDS011;10210;52.284;9.892;2023-11-18T14:22:00;15.27;;;6.63;;
20101;SDS011;10210;52.284;9.892;2023-11-18T14:24:29;14.93;;;6.67;;
20101;SDS011;10210;52.284;9.892;2023-11-18T14:26:56;15.27;;;6.57;;
20101;SDS011;10210;52.284;9.892;2023-11-18T14:29:22;15.17;;;6.90;;
20101;SDS011;10210;52.284;9.892;2023-11-18T14:31:48;13.50;;;6.00;;
20101;SDS011;10210;52.284;9.892;2023-11-18T14:34:14;14.40;;;6.30;;
20101;SDS011;10210;52.284;9.892;2023-11-18T14:36:40;14.60;;;6.07;;
20101;SDS011;10210;52.284;9.892;2023-11-18T14:39:08;16.17;;;6.40;;
20101;SDS011;10210;52.284;9.892;2023-11-18T14:41:40;15.20;;;6.30;;
20101;SDS011;10210;52.284;9.892;2023-11-18T14:44:05;15.67;;;6.20;;
20101;SDS011;10210;52.284;9.892;2023-11-18T14:46:34;14.40;;;6.63;;
20101;SDS011;10210;52.284;9.892;2023-11-18T14:49:03;13.83;;;5.67;;
20101;SDS011;10210;52.284;9.892;2023-11-18T14:51:32;12.73;;;5.43;;
20101;SDS011;10210;52.284;9.892;2023-11-18T14:53:58;14.27;;;6.30;;
20101;SDS011;10210;52.284;9.892;2023-11-18T14:56:24;14.53;;;6.37;;
20101;SDS011;10210;52.284;9.892;2023-11-18T14:58:49;14.83;;;6.60;;
20101;SDS011;10210;52.284;9.892;2023-11-18T15:01:15;14.53;;;6.43;;
20101;SDS011;10210;52.284;9.892;2023-11-18T15:03:43;16.47;;;7.27;;
20101;SDS011;10210;52.284;9.892;2023-11-18T15:06:10;14.67;;;6.90;;